Time;durP1;ratioP1;P1;durP2;ratioP2;P2;SDS_P1;SDS_P2;PMS_P1;PMS_P2;Temp;Humidity;BMP_temperature;BMP_pressure;BME280_temperature;BME280_humidity;BME280_pressure;Samples;Min_cycle;Max_cycle;Signal;HPM_P1;HPM_P2
2023/05/16 00:06:27;;;;;;;;;;;;;;;;;;;;;
2023/05/16 00:14:03;;;;;;;10.00;1.17;;;8.70;99.90;;;;;;4858818;29;20113;-83
2023/05/16 00:17:27;;;;;;;7.18;0.77;;;8.80;99.90;;;;;;4865242;29;20097;-82
2023/05/16 00:21:31;;;;;;;9.68;0.90;;;8.80;99.90;;;;;;4883509;29;20112;-82
2023/05/16 00:25:12;;;;;;;;;;;;;;;;;;;;;
2023/05/16 00:29:01;;;;;;;8.07;0.80;;;8.60;99.90;;;;;;4791258;29;20111;-83
2023/05/16 00:32:21;;;;;;;;;;;8.60;99.90;;;;;;4822298;29;20089;-82
2023/05/16 00:55:50;;;;;;;7.07;1.10;;;8.50;99.90;;;;;;5108268;28;20557;-83
2023/05/16 01:03:25;;;;;;;4.82;0.77;;;8.50;99.90;;;;;;4930359;29;20111;-82
2023/05/16 01:07:18;;;;;;;;;;;;;;;;;;;;;
2023/05/16 01:11:04;;;;;;;8.77;0.80;;;8.40;99.90;;;;;;4930372;28;20055;-82
2023/05/16 01:14:46;;;;;;;6.53;1.13;;;8.40;99.90;;;;;;4930503;29;20409;-83
2023/05/16 01:18:00;;;;;;;9.00;1.10;;;8.40;99.90;;;;;;4912372;29;20102;-83
2023/05/16 01:21:15;;;;;;;6.30;0.60;;;8.50;99.90;;;;;;4929294;29;20521;-83
2023/05/16 01:28:49;;;;;;;8.90;0.90;;;8.40;99.90;;;;;;4914816;29;20425;-82
2023/05/16 01:32:19;;;;;;;5.68;1.00;;;8.30;99.90;;;;;;4930266;29;20412;-83
2023/05/16 01:35:28;;;;;;;;;;;;;;;;;;;;;
2023/05/16 01:39:36;;;;;;;;;;;;;;;;;;;;;
2023/05/16 01:43:08;;;;;;;10.32;0.80;;;8.40;99.90;;;;;;5027042;28;20045;-82
2023/05/16 01:46:31;;;;;;;11.90;1.23;;;8.40;99.90;;;;;;5009419;28;20050;-83
2023/05/16 01:50:13;;;;;;;8.73;0.90;;;8.50;99.90;;;;;;5026618;28;20080;-82
2023/05/16 03:04:40;;;;;;;8.55;0.90;;;8.10;99.90;;;;;;4945825;29;20082;-81
2023/05/16 03:11:48;;;;;;;9.52;1.42;;;8.00;99.90;;;;;;4896742;29;20117;-84
2023/05/16 03:15:40;;;;;;;;;;;;;;;;;;;;;
2023/05/16 03:23:56;;;;;;;;;;;;;;;;;;;;;
2023/05/16 03:27:38;;;;;;;6.90;1.02;;;7.80;99.90;;;;;;4840924;29;20050;-82
2023/05/16 03:30:42;;;;;;;4.78;1.10;;;7.80;99.90;;;;;;4789297;29;20603;-82
2023/05/16 03:34:12;;;;;;;;;;;;;;;;;;;;;
2023/05/16 03:37:40;;;;;;;;;;;;;;;;;;;;;
2023/05/16 03:40:47;;;;;;;9.77;0.77;;;7.70;99.90;;;;;;5146240;27;20099;-80
2023/05/16 03:43:56;;;;;;;4.35;0.70;;;7.60;99.90;;;;;;5115314;27;20219;-81
2023/05/16 03:47:05;;;;;;;7.30;1.08;;;7.60;99.90;;;;;;5148238;27;20051;-80
2023/05/16 03:50:16;;;;;;;;;;;;;;;;;;;;;
2023/05/16 03:53:21;;;;;;;;;;;7.60;99.90;;;;;;5067907;28;20396;-80
2023/05/16 03:56:26;;;;;;;4.95;1.40;;;7.60;99.90;;;;;;5082855;28;19920;-82
2023/05/16 03:59:37;;;;;;;7.10;0.90;;;7.60;99.90;;;;;;5093551;28;20492;-81
2023/05/16 04:02:42;;;;;;;4.43;0.80;;;7.70;99.90;;;;;;5089647;28;20037;-81
2023/05/16 04:05:49;;;;;;;3.17;0.60;;;7.40;99.90;;;;;;5104694;28;20097;-81
2023/05/16 04:08:42;;;;;;;5.03;0.70;;;7.70;99.90;;;;;;5087022;28;20043;-81
2023/05/16 04:11:38;;;;;;;5.82;1.10;;;7.80;99.90;;;;;;5106896;28;20074;-81
2023/05/16 04:15:02;;;;;;;5.78;0.70;;;7.80;99.90;;;;;;5088566;28;20162;-81
2023/05/16 04:18:25;;;;;;;10.57;1.38;;;7.90;99.90;;;;;;5107614;28;20079;-81
2023/05/16 04:21:50;;;;;;;2.85;0.77;;;8.00;99.90;;;;;;5086971;28;20131;-81
2023/05/16 04:25:04;;;;;;;;;;;;;;;;;;;;;
2023/05/16 04:28:40;;;;;;;8.50;0.77;;;8.00;99.90;;;;;;5107438;28;20392;-82
2023/05/16 04:31:54;;;;;;;6.55;0.60;;;8.10;99.90;;;;;;5105754;28;20442;-81
2023/05/16 04:35:23;;;;;;;9.25;1.00;;;8.10;99.90;;;;;;5043739;28;20095;-81
2023/05/16 04:38:45;;;;;;;10.88;0.75;;;8.10;99.90;;;;;;5062943;28;20052;-81
2023/05/16 04:42:07;;;;;;;10.02;0.77;;;8.20;99.90;;;;;;5049192;28;20064;-81
2023/05/16 04:45:35;;;;;;;;;;;;;;;;;;;;;
2023/05/16 04:48:36;;;;;;;11.15;0.93;;;8.30;99.90;;;;;;4993051;28;20110;-82
2023/05/16 04:52:02;;;;;;;7.15;0.80;;;8.40;99.90;;;;;;4935581;29;20087;-81
2023/05/16 04:55:07;;;;;;;7.35;0.73;;;8.40;99.90;;;;;;4937117;29;20130;-81
2023/05/16 04:58:08;;;;;;;6.68;0.60;;;8.50;99.90;;;;;;4954455;29;20443;-81
2023/05/16 05:01:10;;;;;;;8.32;0.80;;;8.60;99.90;;;;;;4955884;28;20500;-81
2023/05/16 05:04:16;;;;;;;6.00;0.57;;;8.60;99.90;;;;;;4959112;28;20051;-81
2023/05/16 05:07:53;;;;;;;10.65;0.70;;;8.60;99.90;;;;;;4957703;28;20055;-81
2023/05/16 05:10:53;;;;;;;5.93;0.80;;;8.70;99.90;;;;;;4942562;29;20043;-81
2023/05/16 05:14:20;;;;;;;;;;;;;;;;;;;;;
2023/05/16 05:17:46;;;;;;;6.38;0.70;;;8.80;99.90;;;;;;4972354;28;20158;-81
2023/05/16 05:21:28;;;;;;;4.55;0.68;;;8.90;99.90;;;;;;4930870;29;20239;-83
2023/05/16 05:24:15;;;;;;;4.88;0.60;;;8.90;99.90;;;;;;4907114;29;20066;-85
2023/05/16 05:27:10;;;;;;;8.40;0.75;;;9.10;99.90;;;;;;4929282;29;20118;-81
2023/05/16 05:30:01;;;;;;;5.63;0.80;;;9.10;99.90;;;;;;4912993;29;20059;-83
2023/05/16 05:32:46;;;;;;;10.45;0.85;;;9.30;99.90;;;;;;4928938;29;20055;-82
2023/05/16 05:39:59;;;;;;;4.20;0.70;;;9.50;99.90;;;;;;4935469;29;20514;-84
2023/05/16 05:42:40;;;;;;;7.47;0.60;;;9.60;99.90;;;;;;4952353;29;20052;-84
2023/05/16 05:45:42;;;;;;;;;;;;;;;;;;;;;
2023/05/16 05:49:05;;;;;;;9.80;0.70;;;9.80;99.90;;;;;;5014736;28;20057;-82
2023/05/16 05:52:15;;;;;;;;;;;;;;;;;;;;;
2023/05/16 05:55:18;;;;;;;3.60;0.57;;;10.00;99.90;;;;;;5008525;28;20051;-81
2023/05/16 05:58:08;;;;;;;8.50;0.70;;;10.00;99.90;;;;;;5120089;27;20043;-81
2023/05/16 06:01:20;;;;;;;8.40;0.90;;;10.10;99.90;;;;;;5146481;27;20049;-83
2023/05/16 06:04:37;;;;;;;;;;;;;;;;;;;;;
2023/05/16 06:07:59;;;;;;;4.15;0.60;;;10.30;99.90;;;;;;5132857;27;20047;-82
2023/05/16 06:11:11;;;;;;;8.30;0.88;;;10.40;99.90;;;;;;5135055;27;20047;-83
2023/05/16 06:14:33;;;;;;;5.32;0.57;;;10.40;99.90;;;;;;5134932;27;20050;-82
2023/05/16 06:18:06;;;;;;;6.75;0.60;;;10.50;99.90;;;;;;5123193;27;20071;-82
2023/05/16 06:21:13;;;;;;;4.00;0.73;;;10.50;99.90;;;;;;5151925;27;20251;-82
2023/05/16 06:24:24;;;;;;;4.93;0.63;;;10.60;99.90;;;;;;5128940;27;20490;-83
2023/05/16 06:27:23;;;;;;;5.88;1.00;;;10.70;99.90;;;;;;5131701;27;20057;-87
2023/05/16 06:30:21;;;;;;;9.90;0.60;;;10.90;99.90;;;;;;5149905;27;20039;-82
2023/05/16 06:33:42;;;;;;;;;;;;;;;;;;;;;
2023/05/16 06:36:52;;;;;;;6.88;0.60;;;11.10;99.90;;;;;;5151140;27;20055;-81
2023/05/16 06:39:41;;;;;;;;;;;11.20;99.90;;;;;;5130000;27;20059;-81
2023/05/16 06:42:58;;;;;;;8.20;0.80;;;11.20;99.90;;;;;;5135853;27;19921;-83
2023/05/16 06:46:17;;;;;;;8.00;0.93;;;11.40;99.90;;;;;;5148760;27;20508;-83
2023/05/16 06:49:33;;;;;;;5.78;0.55;;;11.40;99.90;;;;;;5152226;27;20132;-83
2023/05/16 06:52:42;;;;;;;6.93;0.45;;;11.40;99.90;;;;;;5150772;27;20089;-84
2023/05/16 06:55:55;;;;;;;7.50;0.50;;;11.40;99.90;;;;;;5124701;27;20138;-81
2023/05/16 06:59:16;;;;;;;9.40;0.82;;;11.40;99.90;;;;;;5133816;27;20054;-81
2023/05/16 07:02:30;;;;;;;3.45;0.57;;;11.50;99.90;;;;;;5112054;27;20135;-82
2023/05/16 07:05:33;;;;;;;5.95;0.90;;;11.60;99.90;;;;;;5113960;27;20144;-82
2023/05/16 07:08:39;;;;;;;;;;;11.80;99.90;;;;;;5113890;27;20080;-84
2023/05/16 07:11:38;;;;;;;6.93;0.88;;;11.80;99.90;;;;;;5114494;27;19923;-84
2023/05/16 07:14:45;;;;;;;;;;;;;;;;;;;;;
2023/05/16 07:17:55;;;;;;;9.95;0.80;;;12.20;99.90;;;;;;5080649;27;20445;-84
2023/05/16 07:20:59;;;;;;;8.27;0.80;;;12.30;99.90;;;;;;5136855;27;20498;-80
2023/05/16 07:24:22;;;;;;;5.93;0.65;;;11.90;99.90;;;;;;5152311;27;20042;-81
2023/05/16 07:27:40;;;;;;;9.27;0.80;;;11.50;99.90;;;;;;5153764;27;20042;-81
2023/05/16 07:31:02;;;;;;;;;;;;;;;;;;;;;
2023/05/16 07:33:54;;;;;;;10.77;0.70;;;11.90;99.90;;;;;;5130035;27;20121;-83
2023/05/16 07:37:19;;;;;;;9.43;0.90;;;11.90;99.90;;;;;;5133350;27;20043;-82
2023/05/16 07:40:13;;;;;;;4.00;0.82;;;11.70;99.90;;;;;;5131284;28;20126;-82
2023/05/16 07:43:06;;;;;;;6.30;0.70;;;11.80;99.90;;;;;;5151703;27;20057;-81
2023/05/16 07:46:30;;;;;;;6.55;0.93;;;11.70;99.90;;;;;;5120297;27;20511;-83
2023/05/16 07:49:51;;;;;;;6.32;0.95;;;11.80;99.90;;;;;;5133952;27;20061;-82
2023/05/16 07:52:57;;;;;;;6.00;0.98;;;11.90;99.90;;;;;;5117793;27;20047;-81
2023/05/16 07:56:04;;;;;;;3.10;0.60;;;11.90;99.90;;;;;;5149581;27;20516;-81
2023/05/16 07:59:13;;;;;;;5.05;0.70;;;12.20;99.90;;;;;;5134773;27;20061;-82
2023/05/16 08:02:19;;;;;;;6.13;0.55;;;12.30;99.90;;;;;;5130908;27;20050;-81
2023/05/16 08:05:38;;;;;;;2.63;0.50;;;12.30;99.90;;;;;;5116637;27;20043;-81
2023/05/16 08:08:19;;;;;;;6.53;1.00;;;12.20;99.90;;;;;;5149867;27;20484;-83
2023/05/16 08:10:46;;;;;;;6.13;1.48;;;12.10;99.90;;;;;;5121801;27;20050;-81
2023/05/16 08:13:14;;;;;;;6.03;0.70;;;12.20;99.90;;;;;;5117281;27;20046;-82
2023/05/16 08:15:41;;;;;;;4.00;0.50;;;12.40;99.90;;;;;;5151763;27;20628;-83
2023/05/16 08:18:14;;;;;;;4.95;0.70;;;12.70;99.90;;;;;;5154557;27;20083;-82
2023/05/16 08:20:42;;;;;;;3.08;0.40;;;12.80;99.90;;;;;;5157232;27;20042;-80
2023/05/16 08:23:09;;;;;;;3.58;0.50;;;12.70;99.90;;;;;;5157463;27;20391;-81
2023/05/16 08:25:39;;;;;;;5.85;0.70;;;12.70;99.90;;;;;;5139671;27;20042;-81
2023/05/16 08:28:08;;;;;;;4.97;0.60;;;12.80;99.90;;;;;;5136532;27;20074;-82
2023/05/16 08:30:39;;;;;;;4.45;0.45;;;13.00;99.90;;;;;;5147565;27;20491;-83
2023/05/16 08:33:16;;;;;;;4.15;0.60;;;13.00;99.90;;;;;;5137866;27;20399;-81
2023/05/16 08:35:54;;;;;;;8.48;0.75;;;13.10;99.90;;;;;;5155075;27;20119;-82
2023/05/16 08:38:29;;;;;;;7.22;0.50;;;13.00;99.90;;;;;;5156980;27;20054;-84
2023/05/16 08:40:58;;;;;;;4.40;0.30;;;13.10;99.90;;;;;;5156254;27;20039;-83
2023/05/16 08:43:30;;;;;;;5.68;0.85;;;13.30;99.90;;;;;;5135145;27;20488;-82
2023/05/16 08:46:00;;;;;;;5.32;0.60;;;13.40;99.90;;;;;;5137629;27;20384;-84
2023/05/16 08:48:34;;;;;;;8.82;0.70;;;13.00;99.90;;;;;;5118474;27;20057;-83
2023/05/16 08:51:02;;;;;;;8.18;0.80;;;13.10;99.90;;;;;;5136248;27;20042;-83
2023/05/16 08:53:39;;;;;;;5.32;1.75;;;12.80;99.90;;;;;;5117687;27;20133;-82
2023/05/16 08:56:13;;;;;;;6.93;0.93;;;12.80;99.90;;;;;;5137530;27;20395;-83
2023/05/16 08:58:43;;;;;;;2.78;0.50;;;13.00;99.90;;;;;;5117882;27;20054;-82
2023/05/16 09:01:21;;;;;;;6.68;0.70;;;13.40;99.90;;;;;;5101319;27;20039;-82
2023/05/16 09:04:03;;;;;;;2.92;0.50;;;13.70;99.90;;;;;;5145520;27;20049;-82
2023/05/16 09:06:39;;;;;;;9.20;0.95;;;13.90;99.90;;;;;;5156177;27;20093;-82
2023/05/16 09:09:11;;;;;;;5.40;0.85;;;13.60;99.90;;;;;;5142886;27;20031;-82
2023/05/16 09:11:40;;;;;;;3.55;0.50;;;13.60;99.90;;;;;;5138782;27;20071;-83
2023/05/16 09:15:03;;;;;;;4.75;0.50;;;13.60;99.90;;;;;;5136031;27;20043;-83
2023/05/16 09:18:04;;;;;;;11.55;1.08;;;13.80;99.90;;;;;;5013695;28;20056;-81
2023/05/16 09:20:53;;;;;;;7.78;0.60;;;14.00;99.90;;;;;;4993598;28;20051;-81
2023/05/16 09:24:10;;;;;;;4.80;0.60;;;14.10;99.90;;;;;;5031091;28;20580;-82
2023/05/16 09:27:44;;;;;;;;;;;;;;;;;;;;;
2023/05/16 09:31:29;;;;;;;3.67;0.50;;;13.80;99.90;;;;;;4994713;28;20086;-83
2023/05/16 09:34:56;;;;;;;6.70;0.57;;;13.70;99.90;;;;;;4944161;28;20055;-82
2023/05/16 09:38:08;;;;;;;6.53;0.73;;;13.80;99.90;;;;;;4912815;29;20052;-81
2023/05/16 09:41:06;;;;;;;6.72;0.60;;;13.50;99.90;;;;;;4899582;29;20461;-83
2023/05/16 09:44:33;;;;;;;6.63;0.80;;;13.40;99.90;;;;;;4915680;29;20063;-83
2023/05/16 09:48:22;;;;;;;2.15;0.45;;;13.10;99.90;;;;;;4915729;29;20195;-84
2023/05/16 09:51:32;;;;;;;1.88;0.43;;;12.80;99.90;;;;;;4885388;29;20218;-82
2023/05/16 09:55:05;;;;;;;7.18;1.13;;;13.20;99.90;;;;;;4889361;29;20120;-82
2023/05/16 09:58:19;;;;;;;7.45;0.70;;;13.50;99.90;;;;;;4897295;29;20532;-82
2023/05/16 10:00:59;;;;;;;3.50;0.70;;;13.90;99.90;;;;;;4911764;29;20048;-82
2023/05/16 10:03:51;;;;;;;9.07;0.60;;;13.80;99.90;;;;;;4898411;29;20089;-81
2023/05/16 10:07:03;;;;;;;6.68;0.50;;;13.80;99.90;;;;;;4908850;29;20071;-81
2023/05/16 10:09:54;;;;;;;7.18;0.90;;;14.10;99.90;;;;;;4939906;29;20051;-81
2023/05/16 10:12:51;;;;;;;3.60;0.77;;;13.90;99.90;;;;;;4945500;28;20424;-83
2023/05/16 10:15:43;;;;;;;3.42;0.35;;;13.50;99.90;;;;;;5028626;28;20114;-83
2023/05/16 10:19:03;;;;;;;2.75;0.40;;;12.40;99.90;;;;;;4999828;28;20171;-82
2023/05/16 10:22:10;;;;;;;0.70;0.20;;;11.90;99.90;;;;;;5029605;28;20064;-81
2023/05/16 10:25:22;;;;;;;1.35;0.20;;;11.60;99.90;;;;;;5011602;28;20042;-80
2023/05/16 10:28:41;;;;;;;1.48;0.60;;;11.50;99.90;;;;;;5088323;28;20047;-82
2023/05/16 10:31:42;;;;;;;3.47;0.20;;;11.70;99.90;;;;;;5073881;28;20078;-82
2023/05/16 10:35:22;;;;;;;;;;;;;;;;;;;;;
2023/05/16 10:38:38;;;;;;;5.30;0.80;;;12.20;99.90;;;;;;5025766;28;20139;-81
2023/05/16 10:41:25;;;;;;;2.92;0.50;;;12.60;99.90;;;;;;5004064;28;20056;-82
2023/05/16 10:44:27;;;;;;;7.30;0.57;;;12.90;99.90;;;;;;5006824;28;20534;-84
2023/05/16 10:47:40;;;;;;;9.85;0.60;;;12.90;99.90;;;;;;5014380;28;20100;-81
2023/05/16 10:50:47;;;;;;;3.60;0.70;;;12.70;99.90;;;;;;5024129;28;20453;-82
2023/05/16 10:54:18;;;;;;;3.83;0.50;;;12.70;99.90;;;;;;4952312;28;20054;-81
2023/05/16 10:57:22;;;;;;;8.15;0.80;;;13.10;99.90;;;;;;4908776;29;20056;-82
2023/05/16 11:00:08;;;;;;;8.02;0.82;;;13.10;99.90;;;;;;4913506;29;20468;-83
2023/05/16 11:03:33;;;;;;;;;;;;;;;;;;;;;
2023/05/16 11:07:22;;;;;;;6.60;0.55;;;13.10;99.90;;;;;;4920212;29;20052;-82
2023/05/16 11:10:49;;;;;;;9.10;0.75;;;13.40;99.90;;;;;;4863025;29;20063;-83
2023/05/16 11:13:58;;;;;;;6.10;0.52;;;13.30;99.90;;;;;;4847974;29;20097;-81
2023/05/16 11:17:19;;;;;;;5.35;0.70;;;13.40;99.90;;;;;;4860271;29;20116;-82
2023/05/16 11:20:18;;;;;;;5.43;0.82;;;13.60;99.90;;;;;;4876448;29;20064;-82
2023/05/16 11:23:39;;;;;;;4.40;0.57;;;13.50;99.90;;;;;;4893680;29;20527;-82
2023/05/16 11:27:19;;;;;;;7.45;0.60;;;13.70;99.90;;;;;;4876430;29;20053;-83
2023/05/16 11:30:18;;;;;;;6.25;0.63;;;13.90;99.90;;;;;;4875048;29;20072;-82
2023/05/16 11:33:18;;;;;;;4.25;0.85;;;14.00;99.90;;;;;;4880540;29;20088;-83
2023/05/16 11:36:42;;;;;;;6.43;0.70;;;14.30;99.90;;;;;;4894130;29;20045;-81
2023/05/16 11:40:02;;;;;;;6.22;0.90;;;14.40;99.90;;;;;;4887926;29;20053;-82
2023/05/16 11:42:37;;;;;;;6.68;0.65;;;14.50;99.90;;;;;;4899556;28;20665;-80
2023/05/16 11:49:07;;;;;;;3.92;0.60;;;14.50;99.90;;;;;;4951084;29;20138;-82
2023/05/16 11:51:53;;;;;;;6.50;1.10;;;14.40;99.90;;;;;;4991531;28;20054;-81
2023/05/16 11:55:09;;;;;;;7.32;0.77;;;14.30;99.90;;;;;;5026671;28;20037;-83
2023/05/16 11:58:50;;;;;;;8.32;0.90;;;14.00;99.90;;;;;;5014573;28;20125;-84
2023/05/16 12:02:09;;;;;;;6.50;0.93;;;13.90;99.90;;;;;;4953458;29;20089;-89
2023/05/16 12:08:48;;;;;;;6.65;0.80;;;13.70;99.90;;;;;;5014145;28;20129;-81
2023/05/16 12:11:54;;;;;;;5.80;0.95;;;13.30;99.90;;;;;;5032298;28;20060;-81
2023/05/16 12:15:08;;;;;;;6.85;1.05;;;13.20;99.90;;;;;;5021374;28;20054;-81
2023/05/16 12:18:20;;;;;;;5.57;0.80;;;13.30;99.90;;;;;;5009139;28;20143;-85
2023/05/16 12:21:45;;;;;;;8.15;1.10;;;13.50;99.90;;;;;;4998295;28;20049;-84
2023/05/16 12:24:21;;;;;;;6.80;0.93;;;13.60;99.90;;;;;;4958325;28;20046;-81
2023/05/16 12:27:21;;;;;;;3.72;0.90;;;13.60;99.90;;;;;;4974553;28;20046;-83
2023/05/16 12:30:20;;;;;;;;;;;13.60;99.90;;;;;;4965004;28;20039;-87
2023/05/16 12:33:22;;;;;;;8.98;1.23;;;13.60;99.90;;;;;;4949479;29;20025;-82
2023/05/16 12:37:04;;;;;;;9.60;1.65;;;13.60;99.90;;;;;;4977033;28;20104;-83
2023/05/16 12:40:11;;;;;;;6.22;1.27;;;13.60;99.90;;;;;;5000735;28;20041;-85
2023/05/16 12:43:40;;;;;;;6.35;1.08;;;13.60;99.90;;;;;;5053580;28;20460;-83
2023/05/16 12:46:59;;;;;;;4.13;1.10;;;13.40;99.90;;;;;;5030056;28;20049;-83
2023/05/16 12:50:20;;;;;;;;;;;;;;;;;;;;;
2023/05/16 12:53:25;;;;;;;7.57;1.30;;;13.10;99.90;;;;;;5011685;28;20437;-84
2023/05/16 12:56:33;;;;;;;10.27;1.52;;;13.30;99.90;;;;;;5015040;28;20089;-84
2023/05/16 12:59:52;;;;;;;6.22;1.30;;;13.50;99.90;;;;;;5022574;28;20367;-82
2023/05/16 13:02:58;;;;;;;5.15;1.00;;;13.50;99.90;;;;;;5074596;28;20497;-83
2023/05/16 13:05:35;;;;;;;10.10;1.80;;;13.80;99.90;;;;;;5094608;28;20044;-83
2023/05/16 13:08:06;;;;;;;5.10;1.40;;;14.20;99.90;;;;;;5102960;28;20040;-82
2023/05/16 13:10:36;;;;;;;6.18;1.77;;;14.30;99.90;;;;;;5094825;28;20369;-82
2023/05/16 13:13:08;;;;;;;4.72;1.20;;;14.00;99.90;;;;;;5096032;28;20042;-82
2023/05/16 13:15:42;;;;;;;4.57;0.93;;;14.00;99.90;;;;;;5095132;28;20062;-84
2023/05/16 13:18:18;;;;;;;7.05;1.10;;;13.80;99.90;;;;;;5077638;28;20032;-84
2023/05/16 13:20:46;;;;;;;9.32;0.80;;;13.60;99.90;;;;;;5094914;28;20040;-81
2023/05/16 13:23:18;;;;;;;5.75;1.15;;;13.40;99.90;;;;;;5076970;28;20059;-82
2023/05/16 13:25:58;;;;;;;4.28;1.08;;;13.30;99.90;;;;;;5077036;28;20123;-83
2023/05/16 13:28:37;;;;;;;6.78;1.13;;;13.00;99.90;;;;;;5090903;28;20137;-83
2023/05/16 13:31:15;;;;;;;2.67;0.85;;;13.20;99.90;;;;;;5092994;28;20097;-83
2023/05/16 13:33:51;;;;;;;2.53;0.90;;;13.50;99.90;;;;;;5117955;27;20419;-83
2023/05/16 13:36:48;;;;;;;3.63;1.23;;;14.00;99.90;;;;;;5131439;27;20043;-82
2023/05/16 13:39:21;;;;;;;4.40;1.35;;;14.10;99.90;;;;;;5117985;27;20075;-83
2023/05/16 13:42:02;;;;;;;4.18;1.50;;;14.00;99.90;;;;;;5097646;28;20422;-81
2023/05/16 13:44:37;;;;;;;3.80;1.15;;;14.20;99.90;;;;;;5116415;27;20146;-83
2023/05/16 13:47:11;;;;;;;7.95;1.58;;;14.60;99.90;;;;;;5115267;28;20518;-83
2023/05/16 13:49:46;;;;;;;6.22;1.58;;;14.50;99.90;;;;;;5129615;27;20039;-83
2023/05/16 13:52:15;;;;;;;8.63;2.72;;;14.60;99.90;;;;;;5131366;27;20383;-85
2023/05/16 13:54:45;;;;;;;5.18;1.33;;;14.60;99.90;;;;;;5112537;27;20039;-83
2023/05/16 13:58:00;;;;;;;5.88;1.50;;;14.90;99.90;;;;;;5110429;28;20032;-86
2023/05/16 14:01:17;;;;;;;6.55;2.05;;;14.70;99.90;;;;;;5113392;27;20059;-89
2023/05/16 14:04:03;;;;;;;7.80;1.55;;;14.80;99.90;;;;;;5020908;28;20056;-90
2023/05/16 14:06:47;;;;;;;;;;;14.90;99.90;;;;;;5030594;28;20048;-83
2023/05/16 14:09:39;;;;;;;4.63;1.30;;;14.70;99.90;;;;;;5000304;28;19921;-88
2023/05/16 14:12:16;;;;;;;3.75;1.42;;;14.70;99.90;;;;;;5013884;28;20149;-83
2023/05/16 14:15:04;;;;;;;3.67;1.15;;;14.80;99.90;;;;;;5012206;28;20092;-86
2023/05/16 14:17:58;;;;;;;7.50;1.70;;;14.40;99.90;;;;;;5011003;28;20053;-83
2023/05/16 14:20:25;;;;;;;5.38;1.30;;;14.30;99.90;;;;;;5023276;28;20446;-86
2023/05/16 14:23:15;;;;;;;5.22;1.13;;;14.00;99.90;;;;;;5021871;28;20045;-85
2023/05/16 14:25:46;;;;;;;3.67;1.65;;;13.90;99.90;;;;;;4998446;28;20371;-82
2023/05/16 14:28:22;;;;;;;6.72;1.15;;;13.60;99.90;;;;;;5017728;28;20046;-82
2023/05/16 14:30:53;;;;;;;3.78;1.20;;;13.30;99.90;;;;;;5023462;28;20077;-80
2023/05/16 14:33:32;;;;;;;3.47;0.80;;;13.00;99.90;;;;;;5020736;28;20112;-82
2023/05/16 14:36:54;;;;;;;6.18;0.80;;;13.40;99.90;;;;;;4996695;28;20069;-85
2023/05/16 14:39:27;;;;;;;5.97;1.00;;;13.20;99.90;;;;;;5014113;28;20190;-82
2023/05/16 14:41:53;;;;;;;2.70;0.60;;;13.20;99.90;;;;;;5095151;28;20102;-84
2023/05/16 14:44:23;;;;;;;6.57;1.55;;;13.50;99.90;;;;;;5099948;28;20405;-82
2023/05/16 14:47:22;;;;;;;3.67;0.90;;;13.60;99.90;;;;;;5078526;28;20119;-84
2023/05/16 14:50:08;;;;;;;5.18;0.80;;;14.10;99.90;;;;;;5101373;28;20031;-84
2023/05/16 14:52:47;;;;;;;2.53;0.80;;;14.00;99.90;;;;;;5114326;27;20153;-84
2023/05/16 14:55:48;;;;;;;4.93;0.82;;;14.00;99.90;;;;;;5113249;28;20040;-82
2023/05/16 14:58:30;;;;;;;1.88;0.60;;;14.30;99.90;;;;;;5080235;28;20821;-83
2023/05/16 15:01:14;;;;;;;1.73;0.60;;;14.30;99.90;;;;;;5095034;28;20483;-82
2023/05/16 15:04:12;;;;;;;3.30;0.70;;;14.40;99.90;;;;;;5129284;27;20048;-84
2023/05/16 15:07:36;;;;;;;6.45;0.68;;;14.20;99.90;;;;;;5115906;28;20104;-84
2023/05/16 15:10:17;;;;;;;3.72;0.60;;;14.40;99.90;;;;;;5113119;28;20488;-84
2023/05/16 15:13:03;;;;;;;6.20;0.88;;;14.90;99.90;;;;;;5114564;28;20054;-87
2023/05/16 15:15:47;;;;;;;4.95;0.40;;;14.90;99.90;;;;;;5115272;28;20115;-82
2023/05/16 15:19:03;;;;;;;1.92;0.52;;;14.60;99.90;;;;;;5096143;28;20496;-82
2023/05/16 15:22:16;;;;;;;;;;;;;;;;;;;;;
2023/05/16 15:25:29;;;;;;;4.50;0.50;;;14.20;99.90;;;;;;5134877;28;20108;-84
2023/05/16 15:28:46;;;;;;;1.92;0.40;;;14.00;99.90;;;;;;5134625;27;20051;-81
2023/05/16 15:32:03;;;;;;;2.55;0.40;;;13.80;99.90;;;;;;5066018;28;20047;-81
2023/05/16 15:39:16;;;;;;;4.40;0.50;;;13.50;99.90;;;;;;5117478;28;20345;-80
2023/05/16 15:42:31;;;;;;;3.50;0.63;;;13.40;99.90;;;;;;5104204;28;20135;-78
2023/05/16 15:45:46;;;;;;;;;;;;;;;;;;;;;
2023/05/16 15:49:04;;;;;;;7.47;0.50;;;13.50;99.90;;;;;;5048697;28;20112;-86
2023/05/16 15:52:14;;;;;;;8.65;0.70;;;13.40;99.90;;;;;;5011204;28;20101;-91
2023/05/16 15:55:22;;;;;;;1.25;0.40;;;13.40;99.90;;;;;;4994550;28;20096;-87
2023/05/16 15:58:15;;;;;;;2.97;0.40;;;13.40;99.90;;;;;;5012481;28;20104;-87
2023/05/16 16:01:49;;;;;;;1.65;0.28;;;13.30;99.90;;;;;;5030289;28;20045;-87
2023/05/16 16:04:37;;;;;;;1.25;0.40;;;13.30;99.90;;;;;;5019565;28;20633;-89
2023/05/16 16:07:56;;;;;;;0.70;0.40;;;13.20;99.90;;;;;;5029875;28;20044;-88
2023/05/16 16:14:36;;;;;;;3.38;0.40;;;13.20;99.90;;;;;;4991002;28;20387;-94
2023/05/16 16:17:57;;;;;;;5.85;0.55;;;13.20;99.90;;;;;;4974139;28;20511;-87
2023/05/16 16:21:03;;;;;;;1.05;0.32;;;13.20;99.90;;;;;;4934029;29;20460;-88
2023/05/16 16:24:19;;;;;;;1.45;0.30;;;13.10;99.90;;;;;;4921190;28;20055;-87
2023/05/16 16:30:55;;;;;;;2.95;0.30;;;13.20;99.90;;;;;;4991672;28;20521;-86
2023/05/16 16:34:48;;;;;;;4.18;0.30;;;13.30;99.90;;;;;;5008488;28;20057;-87
2023/05/16 16:37:52;;;;;;;2.63;0.73;;;13.30;99.90;;;;;;4992672;28;20041;-83
2023/05/16 16:40:55;;;;;;;3.63;0.50;;;13.30;99.90;;;;;;5011987;28;20105;-87
2023/05/16 16:44:01;;;;;;;1.55;0.35;;;13.50;99.90;;;;;;4990170;28;20814;-86
2023/05/16 16:47:11;;;;;;;4.50;0.40;;;13.70;99.90;;;;;;5019884;28;20058;-87
2023/05/16 16:50:18;;;;;;;6.85;0.47;;;13.80;99.90;;;;;;4999547;28;20465;-86
2023/05/16 16:53:29;;;;;;;3.80;0.50;;;13.80;99.90;;;;;;5032547;28;20522;-89
2023/05/16 16:56:35;;;;;;;3.40;0.63;;;13.70;99.90;;;;;;5014288;28;20620;-86
2023/05/16 17:00:32;;;;;;;;;;;;;;;;;;;;;
2023/05/16 17:04:10;;;;;;;;;;;;;;;;;;;;;
2023/05/16 17:08:07;;;;;;;4.22;0.60;;;13.20;99.90;;;;;;4995080;28;20137;-89
2023/05/16 17:11:28;;;;;;;6.47;0.80;;;13.10;99.90;;;;;;4900773;29;20052;-88
2023/05/16 17:14:37;;;;;;;2.88;0.52;;;13.10;99.90;;;;;;4864585;29;20089;-90
2023/05/16 17:17:47;;;;;;;5.95;1.00;;;13.00;99.90;;;;;;4862410;29;20061;-87
2023/05/16 17:21:00;;;;;;;5.00;0.80;;;12.90;99.90;;;;;;4863212;29;20060;-87
2023/05/16 17:27:40;;;;;;;5.22;0.80;;;12.90;99.90;;;;;;4892157;29;20451;-86
2023/05/16 17:30:59;;;;;;;6.45;1.50;;;12.90;99.90;;;;;;4873900;29;20083;-90
2023/05/16 17:34:11;;;;;;;11.45;1.70;;;12.80;99.90;;;;;;4879061;29;20442;-84
2023/05/16 17:37:24;;;;;;;5.55;1.27;;;12.90;99.90;;;;;;4927682;28;20134;-86
2023/05/16 17:40:51;;;;;;;7.43;1.00;;;12.70;99.90;;;;;;4971346;28;20479;-85
2023/05/16 17:43:59;;;;;;;5.88;1.02;;;12.70;99.90;;;;;;5010706;28;20104;-86
2023/05/16 17:47:10;;;;;;;2.08;0.88;;;12.50;99.90;;;;;;4995033;28;20549;-87
2023/05/16 17:49:39;;;;;;;5.60;1.00;;;12.50;99.90;;;;;;5060425;28;20135;-84
2023/05/16 17:52:39;;;;;;;4.18;0.98;;;12.50;99.90;;;;;;5114500;28;20507;-85
2023/05/16 17:55:48;;;;;;;4.68;1.05;;;12.40;99.90;;;;;;5090811;28;20438;-86
2023/05/16 17:59:09;;;;;;;;;;;;;;;;;;;;;
2023/05/16 18:01:47;;;;;;;7.63;1.13;;;12.30;99.90;;;;;;5094253;28;20074;-85
2023/05/16 18:04:40;;;;;;;9.13;1.75;;;12.20;99.90;;;;;;5101878;28;20036;-89
2023/05/16 18:07:58;;;;;;;;;;;;;;;;;;;;;
2023/05/16 18:11:02;;;;;;;12.00;1.05;;;12.10;99.90;;;;;;5084261;28;20476;-85
2023/05/16 18:14:32;;;;;;;6.57;1.48;;;12.10;99.90;;;;;;5094664;28;20101;-92
2023/05/16 18:18:04;;;;;;;5.88;1.27;;;11.90;99.90;;;;;;5094092;28;20048;-84
2023/05/16 18:21:31;;;;;;;8.32;1.00;;;11.90;99.90;;;;;;4992437;28;20065;-84
2023/05/16 18:24:38;;;;;;;5.22;1.48;;;11.90;99.90;;;;;;4975155;28;20058;-87
2023/05/16 18:27:40;;;;;;;5.18;0.88;;;11.80;99.90;;;;;;4973455;28;20148;-85
2023/05/16 18:30:48;;;;;;;6.85;1.20;;;11.90;99.90;;;;;;4989635;28;20121;-80
2023/05/16 18:34:06;;;;;;;5.75;1.30;;;11.90;99.90;;;;;;5006507;28;20410;-84
2023/05/16 18:40:59;;;;;;;8.75;1.52;;;11.90;99.90;;;;;;4972519;28;20424;-84
2023/05/16 18:43:58;;;;;;;8.60;2.45;;;11.90;99.90;;;;;;4970057;28;20105;-82
2023/05/16 18:47:04;;;;;;;7.50;1.83;;;11.90;99.90;;;;;;4955046;28;20055;-82
2023/05/16 18:50:03;;;;;;;9.05;2.05;;;11.80;99.90;;;;;;4954225;28;20134;-82
2023/05/16 18:53:08;;;;;;;11.48;1.85;;;11.70;99.90;;;;;;4884747;29;20138;-81
2023/05/16 18:56:40;;;;;;;;;;;;;;;;;;;;;
2023/05/16 18:59:55;;;;;;;8.85;1.65;;;11.60;99.90;;;;;;4951655;29;20496;-83
2023/05/16 19:03:16;;;;;;;;;;;;;;;;;;;;;
2023/05/16 19:06:11;;;;;;;12.13;2.63;;;11.50;99.90;;;;;;4956892;28;20053;-83
2023/05/16 19:08:37;;;;;;;12.00;2.10;;;11.40;99.90;;;;;;4969889;28;20054;-84
2023/05/16 19:11:08;;;;;;;7.97;1.50;;;11.40;99.90;;;;;;4969540;28;20051;-82
2023/05/16 19:13:44;;;;;;;14.48;2.20;;;11.40;99.90;;;;;;5030398;28;20045;-83
2023/05/16 19:16:18;;;;;;;17.05;2.72;;;11.40;99.90;;;;;;5028907;28;20081;-85
2023/05/16 19:18:51;;;;;;;9.38;1.90;;;11.30;99.90;;;;;;5029968;28;20045;-84